createdAt,value
2019-06-27T00:00:40.910Z,1003.20
2019-06-27T00:01:40.955Z,1003.21
2019-06-27T00:02:41.040Z,1003.16
2019-06-27T00:03:41.049Z,1003.18
2019-06-27T00:04:41.096Z,1003.17
2019-06-27T00:05:41.143Z,1003.19
2019-06-27T00:06:41.204Z,1003.20
2019-06-27T00:07:41.235Z,1003.18
2019-06-27T00:08:41.285Z,1003.20
2019-06-27T00:09:41.379Z,1003.21
2019-06-27T00:10:41.375Z,1003.19
2019-06-27T00:11:41.423Z,1003.19
2019-06-27T00:12:41.468Z,1003.16
2019-06-27T00:13:41.519Z,1003.17
2019-06-27T00:14:41.564Z,1003.20
2019-06-27T00:15:41.609Z,1003.21
2019-06-27T00:16:41.654Z,1003.19
2019-06-27T00:17:41.701Z,1003.18
2019-06-27T00:18:41.785Z,1003.18
2019-06-27T00:19:41.793Z,1003.17
2019-06-27T00:20:41.840Z,1003.17
2019-06-27T00:21:41.886Z,1003.17
2019-06-27T00:22:41.939Z,1003.21
2019-06-27T00:23:41.979Z,1003.20
2019-06-27T00:24:42.027Z,1003.18
2019-06-27T00:25:42.073Z,1003.23
2019-06-27T00:26:56.090Z,1003.17
2019-06-27T00:27:42.167Z,1003.22
2019-06-27T00:28:42.230Z,1003.18
2019-06-27T00:29:42.260Z,1003.28
2019-06-27T00:30:42.305Z,1003.20
2019-06-27T00:31:42.349Z,1003.21
2019-06-27T00:32:42.397Z,1003.23
2019-06-27T00:33:42.444Z,1003.26
2019-06-27T00:34:42.492Z,1003.28
2019-06-27T00:35:42.535Z,1003.26
2019-06-27T00:36:42.581Z,1003.28
2019-06-27T00:37:42.628Z,1003.31
2019-06-27T00:38:42.677Z,1003.30
2019-06-27T00:39:42.720Z,1003.32
2019-06-27T00:40:42.775Z,1003.33
2019-06-27T00:41:42.813Z,1003.29
2019-06-27T00:42:42.859Z,1003.31
2019-06-27T00:43:42.903Z,1003.26
2019-06-27T00:44:42.952Z,1003.28
2019-06-27T00:45:43.007Z,1003.29
2019-06-27T00:46:43.045Z,1003.28
2019-06-27T00:47:43.099Z,1003.28
2019-06-27T00:48:43.137Z,1003.27
2019-06-27T00:49:43.183Z,1003.29
2019-06-27T00:50:43.228Z,1003.30
2019-06-27T00:51:45.347Z,1003.27
2019-06-27T00:52:43.324Z,1003.29
2019-06-27T00:53:43.368Z,1003.28
2019-06-27T00:54:43.412Z,1003.26
2019-06-27T00:55:43.487Z,1003.22
2019-06-27T00:56:43.507Z,1003.24
2019-06-27T00:57:43.553Z,1003.25
2019-06-27T00:58:43.598Z,1003.27
2019-06-27T00:59:43.642Z,1003.27
2019-06-27T01:00:43.693Z,1003.27
2019-06-27T01:01:43.747Z,1003.28
2019-06-27T01:02:43.792Z,1003.29
2019-06-27T01:03:43.827Z,1003.31
2019-06-27T01:04:43.880Z,1003.30
2019-06-27T01:05:43.920Z,1003.34
2019-06-27T01:06:43.966Z,1003.33
2019-06-27T01:07:44.014Z,1003.32
2019-06-27T01:08:44.059Z,1003.34
2019-06-27T01:09:44.105Z,1003.35
2019-06-27T01:10:44.151Z,1003.35
2019-06-27T01:11:44.197Z,1003.38
2019-06-27T01:12:44.242Z,1003.40
2019-06-27T01:13:44.289Z,1003.41
2019-06-27T01:14:44.335Z,1003.42
2019-06-27T01:15:44.381Z,1003.42
2019-06-27T01:16:44.428Z,1003.43
2019-06-27T01:17:44.474Z,1003.46
2019-06-27T01:18:44.518Z,1003.48
2019-06-27T01:19:44.573Z,1003.49
2019-06-27T01:20:44.617Z,1003.51
2019-06-27T01:21:44.657Z,1003.50
2019-06-27T01:22:44.703Z,1003.53
2019-06-27T01:23:45.209Z,1003.56
2019-06-27T01:24:44.801Z,1003.56
2019-06-27T01:25:44.843Z,1003.53
2019-06-27T01:26:44.885Z,1003.52
2019-06-27T01:27:44.933Z,1003.52
2019-06-27T01:28:44.978Z,1003.51
2019-06-27T01:29:45.023Z,1003.55
2019-06-27T01:30:45.076Z,1003.56
2019-06-27T01:31:45.115Z,1003.57
2019-06-27T01:32:45.161Z,1003.55
2019-06-27T01:33:45.210Z,1003.57
2019-06-27T01:34:45.256Z,1003.52
2019-06-27T01:35:45.300Z,1003.55
2019-06-27T01:36:45.345Z,1003.55
2019-06-27T01:37:45.392Z,1003.58
2019-06-27T01:38:45.446Z,1003.58
2019-06-27T01:39:45.484Z,1003.60
2019-06-27T01:40:45.529Z,1003.64
2019-06-27T01:41:45.582Z,1003.66
2019-06-27T01:42:45.622Z,1003.68
2019-06-27T01:43:45.672Z,1003.68
2019-06-27T01:44:45.716Z,1003.68
2019-06-27T01:45:45.771Z,1003.73
2019-06-27T01:46:45.808Z,1003.62
2019-06-27T01:47:45.850Z,1003.67
2019-06-27T01:48:45.896Z,1003.67
2019-06-27T01:49:45.962Z,1003.65
2019-06-27T01:50:45.986Z,1003.69
2019-06-27T01:51:46.031Z,1003.68
2019-06-27T01:52:46.078Z,1003.68
2019-06-27T01:53:46.133Z,1003.64
2019-06-27T01:54:46.169Z,1003.63
2019-06-27T01:55:46.291Z,1003.63
2019-06-27T01:56:46.260Z,1003.61
2019-06-27T01:57:47.358Z,1003.60
2019-06-27T01:58:46.351Z,1003.63
2019-06-27T01:59:46.423Z,1003.63
2019-06-27T02:00:46.479Z,1003.66
2019-06-27T02:01:46.491Z,1003.67
2019-06-27T02:02:46.540Z,1003.64
2019-06-27T02:03:46.581Z,1003.71
2019-06-27T02:04:46.631Z,1003.67
2019-06-27T02:05:46.674Z,1003.63
2019-06-27T02:06:46.722Z,1003.69
2019-06-27T02:07:46.764Z,1003.64
2019-06-27T02:08:46.860Z,1003.66
2019-06-27T02:09:46.910Z,1003.69
2019-06-27T02:10:46.901Z,1003.69
2019-06-27T02:11:46.948Z,1003.71
2019-06-27T02:12:46.993Z,1003.72
2019-06-27T02:13:47.037Z,1003.72
2019-06-27T02:14:47.082Z,1003.69
2019-06-27T02:15:47.129Z,1003.65
2019-06-27T02:16:47.178Z,1003.74
2019-06-27T02:17:47.222Z,1003.71
2019-06-27T02:18:47.267Z,1003.70
2019-06-27T02:19:47.310Z,1003.66
2019-06-27T02:20:47.355Z,1003.68
2019-06-27T02:21:47.410Z,1003.69
2019-06-27T02:22:47.446Z,1003.68
2019-06-27T02:23:47.500Z,1003.69
2019-06-27T02:24:47.589Z,1003.72
2019-06-27T02:25:47.585Z,1003.72
2019-06-27T02:26:47.631Z,1003.74
2019-06-27T02:28:02.573Z,1003.75
2019-06-27T02:28:47.720Z,1003.71
2019-06-27T02:29:47.769Z,1003.72
2019-06-27T02:30:47.813Z,1003.74
2019-06-27T02:31:47.959Z,1003.73
2019-06-27T02:32:47.902Z,1003.71
2019-06-27T02:33:47.952Z,1003.70
2019-06-27T02:34:47.998Z,1003.69
2019-06-27T02:35:48.057Z,1003.69
2019-06-27T02:36:48.087Z,1003.77
2019-06-27T02:37:48.135Z,1003.73
2019-06-27T02:38:48.193Z,1003.76
2019-06-27T02:39:48.232Z,1003.73
2019-06-27T02:40:48.272Z,1003.74
2019-06-27T02:41:48.314Z,1003.80
2019-06-27T02:42:48.361Z,1003.74
2019-06-27T02:43:48.404Z,1003.77
2019-06-27T02:44:48.448Z,1003.78
2019-06-27T02:45:48.504Z,1003.82
2019-06-27T02:46:48.540Z,1003.78
2019-06-27T02:47:48.595Z,1003.83
2019-06-27T02:48:48.630Z,1003.83
2019-06-27T02:49:50.682Z,1003.83
2019-06-27T02:50:48.721Z,1003.80
2019-06-27T02:51:48.767Z,1003.73
2019-06-27T02:52:48.822Z,1003.76
2019-06-27T02:53:48.859Z,1003.78
2019-06-27T02:54:48.900Z,1003.83
2019-06-27T02:55:48.962Z,1003.80
2019-06-27T02:56:48.995Z,1003.84
2019-06-27T02:57:49.045Z,1003.82
2019-06-27T02:58:49.090Z,1003.84
2019-06-27T02:59:49.128Z,1003.85
2019-06-27T03:00:49.180Z,1003.85
2019-06-27T03:01:49.226Z,1003.87
2019-06-27T03:02:49.266Z,1003.89
2019-06-27T03:03:49.314Z,1003.89
2019-06-27T03:04:49.357Z,1003.89
2019-06-27T03:05:49.404Z,1003.89
2019-06-27T03:06:49.540Z,1003.88
2019-06-27T03:07:49.498Z,1003.88
2019-06-27T03:08:49.740Z,1003.89
2019-06-27T03:09:49.583Z,1003.92
2019-06-27T03:10:49.627Z,1003.89
2019-06-27T03:11:49.675Z,1003.92
2019-06-27T03:12:49.718Z,1003.92
2019-06-27T03:13:49.761Z,1003.89
2019-06-27T03:14:49.817Z,1003.95
2019-06-27T03:15:49.909Z,1003.99
2019-06-27T03:16:49.898Z,1003.99
2019-06-27T03:17:49.944Z,1004.03
2019-06-27T03:18:49.989Z,1004.01
2019-06-27T03:19:50.037Z,1004.02
2019-06-27T03:20:50.098Z,1004.05
2019-06-27T03:21:50.122Z,1004.03
2019-06-27T03:22:50.179Z,1004.01
2019-06-27T03:23:50.222Z,1004.04
2019-06-27T03:24:50.259Z,1004.03
2019-06-27T03:25:50.306Z,1004.00
2019-06-27T03:26:50.348Z,1003.98
2019-06-27T03:27:50.394Z,1004.02
2019-06-27T03:28:53.524Z,1004.06
2019-06-27T03:29:50.487Z,1004.06
2019-06-27T03:30:50.546Z,1004.06
2019-06-27T03:31:50.581Z,1004.07
2019-06-27T03:32:50.635Z,1004.08
2019-06-27T03:33:50.712Z,1004.07
2019-06-27T03:34:50.737Z,1004.08
2019-06-27T03:35:50.768Z,1004.09
2019-06-27T03:36:50.803Z,1004.12
2019-06-27T03:37:50.850Z,1004.09
2019-06-27T03:38:50.894Z,1004.08
2019-06-27T03:39:50.937Z,1004.08
2019-06-27T03:40:50.981Z,1004.08
2019-06-27T03:41:51.036Z,1004.06
2019-06-27T03:42:51.080Z,1004.07
2019-06-27T03:43:51.120Z,1004.07
2019-06-27T03:44:51.167Z,1004.07
2019-06-27T03:45:51.209Z,1004.07
2019-06-27T03:46:51.256Z,1004.11
2019-06-27T03:47:51.324Z,1004.07
2019-06-27T03:48:51.345Z,1004.05
2019-06-27T03:49:51.391Z,1004.07
2019-06-27T03:50:55.847Z,1004.08
2019-06-27T03:51:51.479Z,1004.09
2019-06-27T03:52:51.525Z,1004.07
2019-06-27T03:53:51.570Z,1004.07
2019-06-27T03:54:51.624Z,1004.07
2019-06-27T03:55:51.661Z,1004.07
2019-06-27T03:56:51.717Z,1004.08
2019-06-27T03:57:51.751Z,1004.03
2019-06-27T03:59:10.787Z,1004.03
2019-06-27T03:59:51.844Z,1004.05
2019-06-27T04:00:51.889Z,1004.06
2019-06-27T04:01:51.935Z,1004.01
2019-06-27T04:02:51.978Z,1004.05
2019-06-27T04:03:52.032Z,1004.01
2019-06-27T04:04:52.093Z,1004.06
2019-06-27T04:05:52.115Z,1004.05
2019-06-27T04:06:52.260Z,1003.98
2019-06-27T04:07:52.204Z,1003.99
2019-06-27T04:08:52.248Z,1003.98
2019-06-27T04:09:52.297Z,1003.97
2019-06-27T04:10:52.340Z,1003.97
2019-06-27T04:11:52.386Z,1003.96
2019-06-27T04:12:52.433Z,1004.02
2019-06-27T04:13:52.484Z,1004.04
2019-06-27T04:14:52.522Z,1004.06
2019-06-27T04:15:52.567Z,1004.03
2019-06-27T04:16:52.613Z,1004.11
2019-06-27T04:17:52.669Z,1004.07
2019-06-27T04:18:52.708Z,1004.05
2019-06-27T04:19:52.752Z,1004.05
2019-06-27T04:20:52.796Z,1004.10
2019-06-27T04:21:52.842Z,1004.09
2019-06-27T04:22:52.890Z,1004.09
2019-06-27T04:23:52.931Z,1004.16
2019-06-27T04:24:52.977Z,1004.17
2019-06-27T04:25:53.023Z,1004.20
2019-06-27T04:26:53.070Z,1004.21
2019-06-27T04:27:53.163Z,1004.17
2019-06-27T04:28:53.164Z,1004.18
2019-06-27T04:29:53.205Z,1004.20
2019-06-27T04:30:53.248Z,1004.23
2019-06-27T04:31:53.305Z,1004.19
2019-06-27T04:32:53.344Z,1004.23
2019-06-27T04:33:53.396Z,1004.25
2019-06-27T04:34:53.449Z,1004.23
2019-06-27T04:35:53.479Z,1004.36
2019-06-27T04:36:53.526Z,1004.36
2019-06-27T04:37:53.567Z,1004.33
2019-06-27T04:38:53.610Z,1004.33
2019-06-27T04:39:53.658Z,1004.34
2019-06-27T04:40:53.708Z,1004.36
2019-06-27T04:41:53.752Z,1004.40
2019-06-27T04:42:53.794Z,1004.39
2019-06-27T04:43:53.839Z,1004.39
2019-06-27T04:44:53.885Z,1004.38
2019-06-27T04:45:53.934Z,1004.36
2019-06-27T04:46:54.032Z,1004.38
2019-06-27T04:47:54.040Z,1004.45
2019-06-27T04:48:54.071Z,1004.40
2019-06-27T04:49:54.112Z,1004.39
2019-06-27T04:50:54.309Z,1004.43
2019-06-27T04:51:54.203Z,1004.48
2019-06-27T04:52:54.249Z,1004.39
2019-06-27T04:53:54.294Z,1004.40
2019-06-27T04:54:54.339Z,1004.38
2019-06-27T04:55:54.385Z,1004.40
2019-06-27T04:56:54.427Z,1004.39
2019-06-27T04:57:54.474Z,1004.43
2019-06-27T04:58:54.521Z,1004.47
2019-06-27T04:59:54.565Z,1004.51
2019-06-27T05:00:54.612Z,1004.48
2019-06-27T05:01:54.665Z,1004.51
2019-06-27T05:02:54.712Z,1004.46
2019-06-27T05:03:54.756Z,1004.45
2019-06-27T05:04:54.803Z,1004.50
2019-06-27T05:05:54.838Z,1004.57
2019-06-27T05:06:54.887Z,1004.50
2019-06-27T05:07:54.941Z,1004.50
2019-06-27T05:08:54.974Z,1004.53
2019-06-27T05:09:55.020Z,1004.56
2019-06-27T05:10:55.063Z,1004.52
2019-06-27T05:11:55.111Z,1004.56
2019-06-27T05:12:55.156Z,1004.58
2019-06-27T05:13:55.206Z,1004.55
2019-06-27T05:14:55.246Z,1004.58
2019-06-27T05:15:55.291Z,1004.52
2019-06-27T05:16:55.336Z,1004.52
2019-06-27T05:17:55.382Z,1004.50
2019-06-27T05:18:55.432Z,1004.51
2019-06-27T05:19:55.475Z,1004.53
2019-06-27T05:20:55.523Z,1004.53
2019-06-27T05:21:55.563Z,1004.56
2019-06-27T05:22:55.613Z,1004.53
2019-06-27T05:23:55.659Z,1004.57
2019-06-27T05:24:55.698Z,1004.58
2019-06-27T05:25:55.743Z,1004.57
2019-06-27T05:26:55.789Z,1004.58
2019-06-27T05:27:55.852Z,1004.55
2019-06-27T05:28:55.906Z,1004.52
2019-06-27T05:30:08.819Z,1004.52
2019-06-27T05:30:56.035Z,1004.52
2019-06-27T05:31:56.017Z,1004.54
2019-06-27T05:32:56.079Z,1004.56
2019-06-27T05:33:56.108Z,1004.55
2019-06-27T05:34:56.156Z,1004.57
2019-06-27T05:35:56.198Z,1004.63
2019-06-27T05:36:56.245Z,1004.63
2019-06-27T05:37:56.287Z,1004.64
2019-06-27T05:38:56.333Z,1004.57
2019-06-27T05:39:56.376Z,1004.58
2019-06-27T05:40:56.425Z,1004.58
2019-06-27T05:41:56.479Z,1004.59
2019-06-27T05:42:56.515Z,1004.60
2019-06-27T05:43:56.565Z,1004.67
2019-06-27T05:44:56.608Z,1004.61
2019-06-27T05:45:56.656Z,1004.63
2019-06-27T05:46:56.695Z,1004.59
2019-06-27T05:47:56.755Z,1004.63
2019-06-27T05:48:56.787Z,1004.65
2019-06-27T05:49:56.839Z,1004.66
2019-06-27T05:50:56.878Z,1004.72
2019-06-27T05:51:56.930Z,1004.73
2019-06-27T05:52:56.971Z,1004.74
2019-06-27T05:53:57.019Z,1004.71
2019-06-27T05:54:57.059Z,1004.73
2019-06-27T05:55:57.129Z,1004.70
2019-06-27T05:56:57.150Z,1004.74
2019-06-27T05:57:57.196Z,1004.70
2019-06-27T05:58:57.241Z,1004.69
2019-06-27T05:59:57.291Z,1004.70
2019-06-27T06:00:57.338Z,1004.71
2019-06-27T06:01:57.380Z,1004.70
2019-06-27T06:02:57.423Z,1004.73
2019-06-27T06:03:57.470Z,1004.75
2019-06-27T06:04:57.519Z,1004.76
2019-06-27T06:05:57.566Z,1004.79
2019-06-27T06:06:57.608Z,1004.80
2019-06-27T06:07:57.652Z,1004.83
2019-06-27T06:08:57.697Z,1004.84
2019-06-27T06:09:57.750Z,1004.84
2019-06-27T06:10:57.787Z,1004.84
2019-06-27T06:11:57.840Z,1004.89
2019-06-27T06:12:57.889Z,1004.93
2019-06-27T06:13:57.927Z,1004.93
2019-06-27T06:14:57.973Z,1004.89
2019-06-27T06:16:00.963Z,1004.89
2019-06-27T06:16:58.059Z,1004.90
2019-06-27T06:17:58.106Z,1004.90
2019-06-27T06:18:58.159Z,1004.91
2019-06-27T06:19:58.196Z,1004.90
2019-06-27T06:20:58.241Z,1004.91
2019-06-27T06:21:58.287Z,1004.91
2019-06-27T06:22:58.337Z,1004.93
2019-06-27T06:23:58.382Z,1004.94
2019-06-27T06:24:58.504Z,1004.94
2019-06-27T06:25:58.477Z,1004.95
2019-06-27T06:26:58.516Z,1005.00
2019-06-27T06:27:58.572Z,1004.97
2019-06-27T06:28:58.609Z,1004.93
2019-06-27T06:29:58.661Z,1004.93
2019-06-27T06:30:58.698Z,1004.92
2019-06-27T06:31:58.745Z,1004.97
2019-06-27T06:32:58.792Z,1004.96
2019-06-27T06:33:58.836Z,1004.94
2019-06-27T06:34:58.882Z,1004.94
2019-06-27T06:35:58.929Z,1004.98
2019-06-27T06:36:58.973Z,1004.97
2019-06-27T06:37:59.020Z,1004.96
2019-06-27T06:38:59.066Z,1004.98
2019-06-27T06:39:59.109Z,1004.95
2019-06-27T06:40:59.167Z,1004.91
2019-06-27T06:41:59.203Z,1004.93
2019-06-27T06:43:00.619Z,1004.89
2019-06-27T06:43:59.298Z,1004.90
2019-06-27T06:44:59.342Z,1004.90
2019-06-27T06:45:59.384Z,1004.89
2019-06-27T06:46:59.603Z,1004.91
2019-06-27T06:47:59.496Z,1004.93
2019-06-27T06:48:59.522Z,1004.96
2019-06-27T06:49:59.573Z,1004.96
2019-06-27T06:50:59.613Z,1004.94
2019-06-27T06:51:59.660Z,1005.01
2019-06-27T06:52:59.707Z,1004.94
2019-06-27T06:53:59.749Z,1005.02
2019-06-27T06:54:59.792Z,1005.03
2019-06-27T06:55:59.848Z,1005.00
2019-06-27T06:56:59.894Z,1005.00
2019-06-27T06:57:59.941Z,1005.00
2019-06-27T06:58:59.982Z,1005.01
2019-06-27T07:00:00.021Z,1005.00
2019-06-27T07:01:02.143Z,1005.03
2019-06-27T07:02:00.139Z,1005.03
2019-06-27T07:03:00.159Z,1005.02
2019-06-27T07:04:00.242Z,1005.03
2019-06-27T07:05:00.431Z,1005.01
2019-06-27T07:06:00.302Z,1005.02
2019-06-27T07:07:00.342Z,1005.01
2019-06-27T07:08:00.412Z,1004.99
2019-06-27T07:09:00.436Z,1004.95
2019-06-27T07:10:00.477Z,1004.99
2019-06-27T07:11:00.522Z,1004.99
2019-06-27T07:12:00.566Z,1004.97
2019-06-27T07:13:00.631Z,1004.96
2019-06-27T07:14:00.667Z,1004.96
2019-06-27T07:15:00.703Z,1004.98
2019-06-27T07:16:00.749Z,1005.01
2019-06-27T07:17:00.823Z,1005.00
2019-06-27T07:18:00.840Z,1004.95
2019-06-27T07:19:00.885Z,1004.95
2019-06-27T07:20:00.932Z,1004.96
2019-06-27T07:21:00.985Z,1004.98
2019-06-27T07:22:01.027Z,1004.94
2019-06-27T07:23:01.067Z,1004.99
2019-06-27T07:24:01.116Z,1004.99
2019-06-27T07:25:01.160Z,1004.98
2019-06-27T07:26:01.208Z,1005.00
2019-06-27T07:27:01.254Z,1004.93
2019-06-27T07:28:01.306Z,1004.97
2019-06-27T07:29:01.343Z,1004.96
2019-06-27T07:30:01.428Z,1004.95
2019-06-27T07:31:16.588Z,1004.96
2019-06-27T07:32:01.477Z,1004.94
2019-06-27T07:33:01.578Z,1004.92
2019-06-27T07:34:01.573Z,1004.98
2019-06-27T07:35:01.632Z,1004.96
2019-06-27T07:36:01.671Z,1004.96
2019-06-27T07:37:01.758Z,1004.98
2019-06-27T07:38:01.756Z,1004.94
2019-06-27T07:39:01.803Z,1005.00
2019-06-27T07:40:01.845Z,1004.99
2019-06-27T07:41:01.889Z,1005.03
2019-06-27T07:42:01.953Z,1005.01
2019-06-27T07:43:01.978Z,1005.10
2019-06-27T07:44:02.031Z,1005.05
2019-06-27T07:45:02.227Z,1005.08
2019-06-27T07:46:02.125Z,1005.08
2019-06-27T07:47:02.162Z,1005.11
2019-06-27T07:48:02.207Z,1005.08
2019-06-27T07:49:02.257Z,1005.07
2019-06-27T07:50:02.309Z,1005.13
2019-06-27T07:51:02.346Z,1005.09
2019-06-27T07:52:02.392Z,1005.05
2019-06-27T07:53:02.437Z,1005.11
2019-06-27T07:54:02.485Z,1005.10
2019-06-27T07:55:02.537Z,1005.11
2019-06-27T07:56:02.583Z,1005.11
2019-06-27T07:57:02.628Z,1005.09
2019-06-27T07:58:02.668Z,1005.14
2019-06-27T07:59:02.719Z,1005.10
2019-06-27T08:00:02.774Z,1005.13
2019-06-27T08:01:02.806Z,1005.12
2019-06-27T08:02:02.857Z,1005.14
2019-06-27T08:03:02.901Z,1005.21
2019-06-27T08:04:02.946Z,1005.15
2019-06-27T08:05:02.987Z,1005.14
2019-06-27T08:06:03.034Z,1005.16
2019-06-27T08:07:03.180Z,1005.17
2019-06-27T08:08:03.132Z,1005.15
2019-06-27T08:09:03.169Z,1005.14
2019-06-27T08:10:03.240Z,1005.13
2019-06-27T08:11:03.263Z,1005.10
2019-06-27T08:12:03.316Z,1005.14
2019-06-27T08:13:03.358Z,1005.16
2019-06-27T08:14:03.402Z,1005.17
2019-06-27T08:15:03.447Z,1005.17
2019-06-27T08:16:03.490Z,1005.09
2019-06-27T08:17:03.538Z,1005.13
2019-06-27T08:18:03.586Z,1005.13
2019-06-27T08:19:03.699Z,1005.09
2019-06-27T08:20:03.719Z,1005.07
2019-06-27T08:21:03.734Z,1005.07
2019-06-27T08:22:03.773Z,1005.03
2019-06-27T08:23:03.812Z,1004.99
2019-06-27T08:24:03.859Z,1005.00
2019-06-27T08:25:03.989Z,1005.01
2019-06-27T08:26:03.951Z,1004.96
2019-06-27T08:27:04.001Z,1004.96
2019-06-27T08:28:04.041Z,1004.96
2019-06-27T08:29:04.089Z,1004.97
2019-06-27T08:30:08.058Z,1004.96
2019-06-27T08:31:04.180Z,1004.95
2019-06-27T08:32:04.228Z,1004.96
2019-06-27T08:33:04.274Z,1004.95
2019-06-27T08:34:04.321Z,1005.00
2019-06-27T08:35:04.363Z,1004.95
2019-06-27T08:36:04.411Z,1004.97
2019-06-27T08:37:04.460Z,1004.91
2019-06-27T08:38:04.503Z,1004.97
2019-06-27T08:39:04.548Z,1004.95
2019-06-27T08:40:04.597Z,1004.94
2019-06-27T08:41:04.644Z,1004.92
2019-06-27T08:42:04.692Z,1004.92
2019-06-27T08:43:04.746Z,1004.88
2019-06-27T08:44:04.781Z,1004.89
2019-06-27T08:45:04.828Z,1004.86
2019-06-27T08:46:04.881Z,1004.89
2019-06-27T08:47:04.924Z,1004.90
2019-06-27T08:48:04.966Z,1004.95
2019-06-27T08:49:05.020Z,1004.89
2019-06-27T08:50:05.128Z,1004.87
2019-06-27T08:51:05.114Z,1004.87
2019-06-27T08:52:05.151Z,1004.87
2019-06-27T08:53:05.197Z,1004.89
2019-06-27T08:54:05.250Z,1004.85
2019-06-27T08:55:05.301Z,1004.83
2019-06-27T08:56:05.343Z,1004.86
2019-06-27T08:57:05.381Z,1004.81
2019-06-27T08:58:05.428Z,1004.79
2019-06-27T08:59:05.473Z,1004.82
2019-06-27T09:00:05.520Z,1004.77
2019-06-27T09:01:05.575Z,1004.80
2019-06-27T09:02:09.271Z,1004.81
2019-06-27T09:03:05.661Z,1004.78
2019-06-27T09:04:05.712Z,1004.79
2019-06-27T09:05:05.753Z,1004.79
2019-06-27T09:06:05.801Z,1004.79
2019-06-27T09:07:05.844Z,1004.76
2019-06-27T09:08:05.947Z,1004.81
2019-06-27T09:09:05.987Z,1004.75
2019-06-27T09:10:05.984Z,1004.81
2019-06-27T09:11:06.029Z,1004.82
2019-06-27T09:12:06.088Z,1004.82
2019-06-27T09:13:06.124Z,1004.80
2019-06-27T09:14:06.169Z,1004.78
2019-06-27T09:15:06.225Z,1004.78
2019-06-27T09:16:06.261Z,1004.80
2019-06-27T09:17:06.310Z,1004.83
2019-06-27T09:18:06.357Z,1004.81
2019-06-27T09:19:06.408Z,1004.75
2019-06-27T09:20:06.458Z,1004.82
2019-06-27T09:21:06.493Z,1004.72
2019-06-27T09:22:06.539Z,1004.75
2019-06-27T09:23:06.586Z,1004.74
2019-06-27T09:24:06.632Z,1004.75
2019-06-27T09:25:06.680Z,1004.79
2019-06-27T09:26:06.726Z,1004.77
2019-06-27T09:27:06.782Z,1004.80
2019-06-27T09:28:06.820Z,1004.77
2019-06-27T09:29:06.865Z,1004.75
2019-06-27T09:30:06.917Z,1004.80
2019-06-27T09:31:06.962Z,1004.76
2019-06-27T09:32:07.013Z,1004.74
2019-06-27T09:33:07.056Z,1004.76
2019-06-27T09:34:07.097Z,1004.72
2019-06-27T09:35:07.143Z,1004.73
2019-06-27T09:36:07.190Z,1004.69
2019-06-27T09:37:07.237Z,1004.70
2019-06-27T09:38:07.307Z,1004.72
2019-06-27T09:39:07.329Z,1004.71
2019-06-27T09:40:07.377Z,1004.75
2019-06-27T09:41:07.424Z,1004.76
2019-06-27T09:42:07.478Z,1004.73
2019-06-27T09:43:07.514Z,1004.78
2019-06-27T09:44:07.567Z,1004.70
2019-06-27T09:45:07.714Z,1004.67
2019-06-27T09:46:07.655Z,1004.67
2019-06-27T09:47:07.702Z,1004.64
2019-06-27T09:48:07.748Z,1004.66
2019-06-27T09:49:07.806Z,1004.67
2019-06-27T09:50:07.842Z,1004.68
2019-06-27T09:51:07.887Z,1004.65
2019-06-27T09:52:07.934Z,1004.67
2019-06-27T09:53:07.982Z,1004.62
2019-06-27T09:54:08.036Z,1004.64
2019-06-27T09:55:08.076Z,1004.59
2019-06-27T09:56:08.123Z,1004.62
2019-06-27T09:57:08.168Z,1004.68
2019-06-27T09:58:08.216Z,1004.65
2019-06-27T09:59:08.260Z,1004.65
2019-06-27T10:00:08.318Z,1004.71
2019-06-27T10:01:08.354Z,1004.71
2019-06-27T10:02:08.402Z,1004.71
2019-06-27T10:03:08.456Z,1004.72
2019-06-27T10:04:08.497Z,1004.70
2019-06-27T10:05:08.543Z,1004.71
2019-06-27T10:06:08.589Z,1004.71
2019-06-27T10:07:08.634Z,1004.69
2019-06-27T10:08:08.681Z,1004.67
2019-06-27T10:09:08.730Z,1004.68
2019-06-27T10:10:08.788Z,1004.65
2019-06-27T10:11:08.823Z,1004.62
2019-06-27T10:12:08.871Z,1004.61
2019-06-27T10:13:08.915Z,1004.64
2019-06-27T10:14:08.961Z,1004.58
2019-06-27T10:15:09.006Z,1004.66
2019-06-27T10:16:09.106Z,1004.63
2019-06-27T10:17:09.107Z,1004.62
2019-06-27T10:18:09.148Z,1004.58
2019-06-27T10:19:09.198Z,1004.59
2019-06-27T10:20:09.240Z,1004.61
2019-06-27T10:21:09.288Z,1004.56
2019-06-27T10:22:09.340Z,1004.59
2019-06-27T10:23:09.385Z,1004.60
2019-06-27T10:24:09.428Z,1004.63
2019-06-27T10:25:09.476Z,1004.59
2019-06-27T10:26:09.524Z,1004.61
2019-06-27T10:27:09.579Z,1004.60
2019-06-27T10:28:09.616Z,1004.52
2019-06-27T10:29:09.678Z,1004.51
2019-06-27T10:30:09.713Z,1004.52
2019-06-27T10:31:09.760Z,1004.48
2019-06-27T10:32:09.861Z,1004.56
2019-06-27T10:33:09.852Z,1004.58
2019-06-27T10:34:09.900Z,1004.53
2019-06-27T10:35:10.004Z,1004.51
2019-06-27T10:36:09.992Z,1004.51
2019-06-27T10:37:10.062Z,1004.52
2019-06-27T10:38:10.094Z,1004.52
2019-06-27T10:39:10.133Z,1004.51
2019-06-27T10:40:10.180Z,1004.53
2019-06-27T10:41:10.227Z,1004.52
2019-06-27T10:42:10.273Z,1004.52
2019-06-27T10:43:10.322Z,1004.52
2019-06-27T10:44:10.367Z,1004.53
2019-06-27T10:45:10.415Z,1004.52
2019-06-27T10:46:10.462Z,1004.50
2019-06-27T10:47:10.509Z,1004.51
2019-06-27T10:48:10.558Z,1004.48
2019-06-27T10:49:10.611Z,1004.45
2019-06-27T10:50:10.650Z,1004.48
2019-06-27T10:51:10.709Z,1004.50
2019-06-27T10:52:10.742Z,1004.46
2019-06-27T10:53:10.791Z,1004.47
2019-06-27T10:54:10.839Z,1004.46
2019-06-27T10:55:10.895Z,1004.44
2019-06-27T10:56:10.933Z,1004.44
2019-06-27T10:57:10.978Z,1004.40
2019-06-27T10:58:11.035Z,1004.38
2019-06-27T10:59:11.072Z,1004.40
2019-06-27T11:00:11.119Z,1004.44
2019-06-27T11:01:11.182Z,1004.38
2019-06-27T11:02:11.224Z,1004.40
2019-06-27T11:03:16.126Z,1004.38
2019-06-27T11:04:11.309Z,1004.42
2019-06-27T11:05:11.362Z,1004.39
2019-06-27T11:06:11.403Z,1004.37
2019-06-27T11:07:11.447Z,1004.43
2019-06-27T11:08:11.493Z,1004.42
2019-06-27T11:09:14.314Z,1004.41
2019-06-27T11:10:11.591Z,1004.34
2019-06-27T11:11:11.640Z,1004.40
2019-06-27T11:12:11.687Z,1004.38
2019-06-27T11:13:11.729Z,1004.36
2019-06-27T11:14:11.789Z,1004.35
2019-06-27T11:15:11.825Z,1004.34
2019-06-27T11:16:11.994Z,1004.33
2019-06-27T11:17:11.921Z,1004.28
2019-06-27T11:18:11.965Z,1004.30
2019-06-27T11:19:12.021Z,1004.27
2019-06-27T11:20:15.169Z,1004.28
2019-06-27T11:21:13.951Z,1004.32
2019-06-27T11:22:12.152Z,1004.38
2019-06-27T11:23:12.202Z,1004.31
2019-06-27T11:24:12.248Z,1004.34
2019-06-27T11:25:12.311Z,1004.29
2019-06-27T11:26:12.340Z,1004.24
2019-06-27T11:27:12.398Z,1004.25
2019-06-27T11:28:12.435Z,1004.23
2019-06-27T11:29:12.489Z,1004.25
2019-06-27T11:30:12.535Z,1004.21
2019-06-27T11:31:12.579Z,1004.22
2019-06-27T11:32:12.635Z,1004.22
2019-06-27T11:33:12.685Z,1004.26
2019-06-27T11:34:12.720Z,1004.28
2019-06-27T11:35:12.766Z,1004.25
2019-06-27T11:36:12.812Z,1004.24
2019-06-27T11:37:12.869Z,1004.21
2019-06-27T11:38:12.907Z,1004.18
2019-06-27T11:39:12.956Z,1004.22
2019-06-27T11:40:13.006Z,1004.31
2019-06-27T11:41:13.049Z,1004.31
2019-06-27T11:42:13.096Z,1004.46
2019-06-27T11:43:13.162Z,1004.30
2019-06-27T11:44:13.189Z,1004.22
2019-06-27T11:45:13.235Z,1004.22
2019-06-27T11:46:13.294Z,1004.20
2019-06-27T11:47:13.331Z,1004.19
2019-06-27T11:48:13.380Z,1004.15
2019-06-27T11:49:13.481Z,1004.18
2019-06-27T11:50:13.474Z,1004.18
2019-06-27T11:51:13.520Z,1004.14
2019-06-27T11:52:13.568Z,1004.15
2019-06-27T11:53:13.619Z,1004.09
2019-06-27T11:54:13.665Z,1004.17
2019-06-27T11:55:13.825Z,1004.11
2019-06-27T11:56:13.767Z,1004.13
2019-06-27T11:57:13.811Z,1004.10
2019-06-27T11:58:13.854Z,1004.12
2019-06-27T11:59:13.903Z,1004.18
2019-06-27T12:00:13.986Z,1004.20
2019-06-27T12:01:14.022Z,1004.12
2019-06-27T12:02:14.041Z,1004.11
2019-06-27T12:03:14.127Z,1004.08
2019-06-27T12:04:14.144Z,1004.07
2019-06-27T12:05:14.184Z,1004.07
2019-06-27T12:06:14.236Z,1004.08